Aérodrome :
LOGIN :

S'inscrire | Disclaimer

   EN    FR    IT 

 










Légende :    VFR   VFR Marginal   IFR   IFR Intensif   IFR Très Intensif
Visi : 
Plafond : 
>= 8 km
>= 3000ft
5 à 8 km
1000 à 3000 ft
1500m à 5 km
500 à 1000 ft
800 à 1500m
200 à 500 ft
< 800m
< 200 ft
Symboles :   Orages  Brouillard  Fortes neiges  Fortes précipitations  Vent > 20 kt
SIGMETs :   Divers  Orages  Givrage  Turbulence  Onde Orograph.  Cendres Volcan.







- Altitude de l'aérodrome : 1906 ft
- Code IATA : INN


LOWI - Innsbruck

DERNIER METAR :
  • 222020Z 08006KT 050V110 9999 FEW020 SCT027 BKN045 M02/M06 Q1012 R08/19//95 NOSIG

METARs EXPIRÉS :
  • 221950Z 07009KT 9999 FEW020 SCT027 BKN045 M02/M06 Q1012 R08/19//95 NOSIG
  • 221920Z 08006KT 050V120 9999 FEW020 SCT027 BKN045 M02/M06 Q1012 R08/19//95 NOSIG
  • 221850Z 09009KT 9999 FEW025 BKN045 M01/M06 Q1012 R08/19//95 NOSIG
  • 221820Z 08008KT 050V120 9999 FEW025 BKN048 M01/M06 Q1012 R08/19//95 NOSIG
  • 221750Z 09008KT 050V130 9999 FEW025 BKN048 M01/M06 Q1011 R08/19//95 NOSIG

TAF TAF LOWI
Valide du 22 à 18h jusqu'au 23 à 18h UTC


221715Z 2218/2318 07007KT 9999 FEW020 BKN040 TX02/2314Z TNM04/2305Z
BECMG 2309/2311 FEW030 BKN300
Pas de NOTAMs connus pour ce terrain.



MET'MAP, la Météo Aéronautique d'un coup d'oeil ! - Copyright ORBIFLY Décembre 2007 - Disclaimer

ORBIFLY MET'MAP TEAM :

Programmation & Développement : Alexandra Zaïnal
Conception & Développement : Baudouin d'Aumeries
Co-Programmation & Développement : Marc-Olivier Méhu
Soutien technique & logistique : Manuel Goepfert

Contact : metmap@orbifly.com




SOURCES & CREDITS :

   NOAA